createdAt,value
2022-11-24T00:01:27.402Z,9.00
2022-11-24T00:04:06.252Z,12.00
2022-11-24T00:06:35.868Z,9.00
2022-11-24T00:09:05.489Z,10.50
2022-11-24T00:16:34.441Z,8.50
2022-11-24T00:19:04.506Z,7.00
2022-11-24T00:21:32.827Z,9.00
2022-11-24T00:24:02.224Z,13.00
2022-11-24T00:26:35.051Z,9.00
2022-11-24T00:29:07.859Z,10.00
2022-11-24T00:31:39.036Z,8.00
2022-11-24T00:36:37.023Z,9.00
2022-11-24T00:39:08.175Z,11.00
2022-11-24T00:44:04.195Z,15.50
2022-11-24T00:51:30.580Z,9.00
2022-11-24T00:54:00.193Z,10.00
2022-11-24T00:58:56.840Z,12.00
2022-11-24T01:01:26.911Z,12.00
2022-11-24T01:03:55.428Z,12.00
2022-11-24T01:06:26.121Z,9.00
2022-11-24T01:11:50.788Z,10.00
2022-11-24T01:14:19.424Z,10.00
2022-11-24T01:16:47.329Z,12.00
2022-11-24T01:21:43.178Z,9.00
2022-11-24T01:24:11.694Z,11.00
2022-11-24T01:26:39.688Z,9.00
2022-11-24T01:31:37.044Z,8.00
2022-11-24T01:34:04.926Z,5.00
2022-11-24T01:36:33.143Z,12.00
2022-11-24T01:39:00.999Z,10.00
2022-11-24T01:41:29.151Z,9.00
2022-11-24T01:43:57.806Z,10.00
2022-11-24T01:46:28.646Z,9.00
2022-11-24T01:49:08.931Z,10.00
2022-11-24T01:51:43.516Z,10.00
2022-11-24T01:54:23.391Z,9.50
2022-11-24T01:56:58.566Z,9.50
2022-11-24T01:59:26.850Z,10.00
2022-11-24T02:01:56.635Z,10.00
2022-11-24T02:04:31.323Z,10.00
2022-11-24T02:07:02.743Z,9.00
2022-11-24T02:09:42.308Z,11.00
2022-11-24T02:12:11.505Z,9.00
2022-11-24T02:17:09.840Z,9.00
2022-11-24T02:19:40.331Z,11.00
2022-11-24T02:22:18.590Z,9.50
2022-11-24T02:25:01.761Z,13.00
2022-11-24T02:27:30.799Z,12.00
2022-11-24T02:29:59.312Z,10.00
2022-11-24T02:32:28.506Z,8.00
2022-11-24T02:39:55.708Z,8.00
2022-11-24T02:44:57.093Z,8.00
2022-11-24T02:49:52.616Z,9.00
2022-11-24T02:52:20.554Z,8.00
2022-11-24T02:54:48.550Z,8.50
2022-11-24T02:57:17.489Z,8.00
2022-11-24T02:59:46.645Z,7.50
2022-11-24T03:02:14.672Z,3.00
2022-11-24T03:04:44.771Z,6.00
2022-11-24T03:07:12.619Z,9.00
2022-11-24T03:09:40.570Z,9.00
2022-11-24T03:19:33.261Z,9.00
2022-11-24T03:22:02.419Z,9.00
2022-11-24T03:24:30.348Z,8.00
2022-11-24T03:26:58.396Z,9.00
2022-11-24T03:31:54.402Z,6.00
2022-11-24T03:34:22.406Z,8.00
2022-11-24T03:36:50.512Z,7.00
2022-11-24T03:39:18.496Z,6.00
2022-11-24T03:41:46.409Z,6.00
2022-11-24T03:51:37.978Z,6.50
2022-11-24T03:54:06.860Z,5.00
2022-11-24T03:56:34.806Z,6.00
2022-11-24T03:59:02.791Z,2.50
2022-11-24T04:01:30.760Z,6.00
2022-11-24T04:03:58.703Z,8.00
2022-11-24T04:06:26.769Z,8.00
2022-11-24T04:08:54.697Z,6.00
2022-11-24T04:14:13.570Z,6.50
2022-11-24T04:16:41.908Z,6.00
2022-11-24T04:19:09.992Z,6.00
2022-11-24T04:21:37.848Z,7.00
2022-11-24T04:24:06.256Z,5.00
2022-11-24T04:26:34.208Z,6.00
2022-11-24T04:29:02.161Z,5.00
2022-11-24T04:31:30.098Z,5.00
2022-11-24T04:33:58.178Z,5.50
2022-11-24T04:36:26.202Z,6.50
2022-11-24T04:39:24.540Z,6.00
2022-11-24T04:41:42.049Z,9.00
2022-11-24T04:46:37.849Z,13.50
2022-11-24T04:49:05.865Z,0.00
2022-11-24T04:51:33.674Z,13.00
2022-11-24T04:54:01.564Z,10.00
2022-11-24T04:56:29.745Z,10.00
2022-11-24T04:58:57.852Z,8.00
2022-11-24T05:01:25.952Z,12.00
2022-11-24T05:06:23.564Z,12.50
2022-11-24T05:11:20.053Z,11.00
2022-11-24T05:13:48.013Z,13.00
2022-11-24T05:16:16.062Z,12.00
2022-11-24T05:21:11.983Z,10.00
2022-11-24T05:23:41.093Z,9.00
2022-11-24T05:26:09.138Z,9.00
2022-11-24T05:31:05.479Z,6.00
2022-11-24T05:33:33.714Z,9.50
2022-11-24T05:36:04.233Z,7.00
2022-11-24T05:38:33.359Z,10.00
2022-11-24T05:41:05.888Z,8.00
2022-11-24T05:43:33.970Z,8.00
2022-11-24T05:46:02.160Z,6.00
2022-11-24T05:48:30.195Z,8.00
2022-11-24T05:53:27.221Z,9.00
2022-11-24T05:55:55.160Z,6.50
2022-11-24T06:03:19.329Z,8.00
2022-11-24T06:05:47.420Z,13.50
2022-11-24T06:08:15.637Z,12.00
2022-11-24T06:10:43.570Z,13.00
2022-11-24T06:13:11.502Z,13.00
2022-11-24T06:15:40.937Z,11.00
2022-11-24T06:18:08.945Z,10.00
2022-11-24T06:20:38.170Z,12.00
2022-11-24T06:23:06.102Z,13.00
2022-11-24T06:25:34.002Z,14.00
2022-11-24T06:28:04.175Z,14.00
2022-11-24T06:30:32.214Z,9.00
2022-11-24T06:33:00.458Z,12.00
2022-11-24T06:35:28.500Z,12.00
2022-11-24T06:37:56.424Z,10.00
2022-11-24T06:40:24.860Z,12.00
2022-11-24T06:42:52.975Z,14.00
2022-11-24T06:52:44.876Z,12.00
2022-11-24T06:55:12.683Z,20.00
2022-11-24T06:57:40.675Z,17.00
2022-11-24T07:00:09.177Z,21.00
2022-11-24T07:02:42.496Z,25.00
2022-11-24T07:07:42.581Z,18.00
2022-11-24T07:10:10.538Z,14.50
2022-11-24T07:12:38.813Z,10.00
2022-11-24T07:15:07.430Z,11.00
2022-11-24T07:17:37.864Z,13.00
2022-11-24T07:20:07.400Z,11.00
2022-11-24T07:25:07.392Z,10.00
2022-11-24T07:27:36.148Z,14.00
2022-11-24T07:32:33.959Z,12.00
2022-11-24T07:35:01.944Z,10.00
2022-11-24T07:37:31.920Z,19.50
2022-11-24T07:40:00.114Z,28.00
2022-11-24T07:42:28.001Z,25.00
2022-11-24T07:44:55.958Z,19.50
2022-11-24T07:54:47.351Z,25.00
2022-11-24T07:57:15.214Z,27.00
2022-11-24T08:02:13.392Z,35.50
2022-11-24T08:04:41.436Z,31.00
2022-11-24T08:07:09.467Z,33.00
2022-11-24T08:09:37.344Z,29.00
2022-11-24T08:12:05.619Z,29.00
2022-11-24T08:14:33.743Z,26.00
2022-11-24T08:19:29.802Z,16.50
2022-11-24T08:24:27.310Z,14.00
2022-11-24T08:26:55.121Z,13.00
2022-11-24T08:29:23.145Z,0.00
2022-11-24T08:31:51.095Z,15.00
2022-11-24T08:34:19.041Z,10.00
2022-11-24T08:36:46.881Z,14.00
2022-11-24T08:49:07.306Z,18.50
2022-11-24T08:56:33.756Z,18.00
2022-11-24T09:01:30.150Z,14.00
2022-11-24T09:06:31.033Z,19.00
2022-11-24T09:09:00.156Z,19.00
2022-11-24T09:16:26.940Z,19.00
2022-11-24T09:23:53.713Z,22.00
2022-11-24T09:26:30.139Z,28.00
2022-11-24T09:29:02.797Z,32.00
2022-11-24T09:31:34.426Z,34.00
2022-11-24T09:34:04.811Z,30.00
2022-11-24T09:39:01.361Z,28.00
2022-11-24T09:41:43.593Z,30.00
2022-11-24T09:44:20.907Z,27.00
2022-11-24T09:49:53.449Z,20.00
2022-11-24T09:55:00.388Z,25.50
2022-11-24T10:00:13.083Z,19.00
2022-11-24T10:02:41.171Z,29.00
2022-11-24T10:05:12.598Z,23.00
2022-11-24T10:08:08.373Z,20.00
2022-11-24T10:10:57.093Z,23.00
2022-11-24T10:14:15.286Z,20.00
2022-11-24T10:17:03.530Z,21.00
2022-11-24T10:22:05.397Z,17.00
2022-11-24T10:24:58.038Z,20.00
2022-11-24T10:27:33.994Z,19.50
2022-11-24T10:30:02.871Z,17.00
2022-11-24T10:32:38.212Z,19.00
2022-11-24T10:35:15.225Z,19.00
2022-11-24T10:37:57.520Z,18.00
2022-11-24T10:43:19.826Z,22.00
2022-11-24T10:45:48.212Z,26.00
2022-11-24T10:48:24.452Z,35.00
2022-11-24T10:53:31.124Z,26.00
2022-11-24T10:56:02.175Z,26.00
2022-11-24T10:58:37.366Z,22.00
2022-11-24T11:01:15.544Z,21.00
2022-11-24T11:03:56.018Z,23.00
2022-11-24T11:06:31.731Z,17.00
2022-11-24T11:09:08.771Z,21.00
2022-11-24T11:11:39.379Z,19.00
2022-11-24T11:14:10.426Z,21.50
2022-11-24T11:19:54.368Z,15.00
2022-11-24T11:22:37.352Z,18.00
2022-11-24T11:36:17.085Z,21.00
2022-11-24T11:38:47.200Z,21.00
2022-11-24T11:41:28.955Z,22.00
2022-11-24T11:44:26.202Z,19.00
2022-11-24T11:46:58.755Z,17.00
2022-11-24T11:49:26.839Z,14.50
2022-11-24T11:52:10.488Z,20.00
2022-11-24T11:54:51.322Z,17.00
2022-11-24T11:57:46.061Z,19.00
2022-11-24T12:00:22.217Z,22.00
2022-11-24T12:03:16.622Z,22.00
2022-11-24T12:10:59.800Z,19.50
2022-11-24T12:13:55.618Z,25.50
2022-11-24T12:16:52.921Z,20.00
2022-11-24T12:19:36.527Z,25.00
2022-11-24T12:22:16.501Z,18.00
2022-11-24T12:24:59.937Z,18.00
2022-11-24T12:27:34.023Z,20.00
2022-11-24T12:33:05.675Z,18.00
2022-11-24T12:38:45.934Z,22.50
2022-11-24T12:41:41.550Z,18.00
2022-11-24T12:44:55.476Z,19.00
2022-11-24T12:47:29.151Z,24.00
2022-11-24T12:50:18.873Z,26.50
2022-11-24T12:53:22.322Z,26.00
2022-11-24T12:58:35.523Z,23.00
2022-11-24T13:01:18.591Z,22.00
2022-11-24T13:03:59.304Z,27.00
2022-11-24T13:09:08.040Z,16.50
2022-11-24T13:14:23.601Z,17.00
2022-11-24T13:20:14.907Z,18.00
2022-11-24T13:22:54.658Z,16.00
2022-11-24T13:27:57.668Z,20.00
2022-11-24T13:33:16.519Z,17.00
2022-11-24T13:38:44.877Z,20.00
2022-11-24T13:41:33.025Z,18.00
2022-11-24T13:49:49.004Z,18.00
2022-11-24T13:52:37.976Z,25.50
2022-11-24T13:55:11.947Z,28.00
2022-11-24T13:57:43.918Z,21.00
2022-11-24T14:00:34.211Z,24.00
2022-11-24T14:05:40.293Z,26.00
2022-11-24T14:08:19.629Z,19.00
2022-11-24T14:10:47.512Z,23.00
2022-11-24T14:13:30.090Z,18.00
2022-11-24T14:16:10.330Z,21.00
2022-11-24T14:18:40.720Z,19.00
2022-11-24T14:21:41.378Z,17.00
2022-11-24T14:24:20.504Z,14.00
2022-11-24T14:26:49.169Z,15.00
2022-11-24T14:29:20.610Z,17.00
2022-11-24T14:31:56.832Z,20.00
2022-11-24T14:36:56.522Z,15.00
2022-11-24T14:39:26.906Z,15.00
2022-11-24T14:42:08.229Z,21.00
2022-11-24T14:50:14.538Z,27.00
2022-11-24T14:52:55.314Z,26.00
2022-11-24T14:58:20.317Z,32.00
2022-11-24T15:06:03.760Z,29.00
2022-11-24T15:08:43.108Z,28.00
2022-11-24T15:11:11.198Z,25.00
2022-11-24T15:16:16.061Z,29.00
2022-11-24T15:18:47.239Z,30.00
2022-11-24T15:21:19.275Z,30.00
2022-11-24T15:26:41.449Z,27.00
2022-11-24T15:31:46.302Z,22.00
2022-11-24T15:34:16.007Z,26.00
2022-11-24T15:36:43.815Z,26.00
2022-11-24T15:39:11.795Z,30.00
2022-11-24T15:41:40.861Z,30.00
2022-11-24T15:44:10.210Z,27.00
2022-11-24T15:46:39.563Z,24.00
2022-11-24T15:49:07.751Z,26.00
2022-11-24T15:54:04.123Z,23.00
2022-11-24T15:56:35.348Z,24.00
2022-11-24T15:59:04.394Z,23.00
2022-11-24T16:01:33.971Z,20.00
2022-11-24T16:06:31.029Z,16.50
2022-11-24T16:08:59.232Z,20.00
2022-11-24T16:11:27.481Z,18.00
2022-11-24T16:13:55.407Z,22.00
2022-11-24T16:16:25.324Z,23.00
2022-11-24T16:18:53.595Z,23.00
2022-11-24T16:21:21.951Z,26.00
2022-11-24T16:26:17.545Z,23.00
2022-11-24T16:28:45.969Z,24.00
2022-11-24T16:31:16.236Z,19.00
2022-11-24T16:33:47.625Z,21.00
2022-11-24T16:38:44.042Z,22.00
2022-11-24T16:41:12.630Z,22.00
2022-11-24T16:48:44.856Z,26.00
2022-11-24T16:51:13.816Z,27.00
2022-11-24T16:53:42.260Z,26.00
2022-11-24T16:58:40.204Z,27.00
2022-11-24T17:01:13.135Z,27.50
2022-11-24T17:03:41.821Z,25.00
2022-11-24T17:11:13.913Z,25.00
2022-11-24T17:13:42.652Z,29.00
2022-11-24T17:16:13.325Z,30.00
2022-11-24T17:18:42.214Z,29.00
2022-11-24T17:21:17.624Z,27.00
2022-11-24T17:26:16.074Z,29.00
2022-11-24T17:31:28.625Z,27.00
2022-11-24T17:33:58.683Z,26.00
2022-11-24T17:36:28.022Z,25.50
2022-11-24T17:41:37.753Z,27.00
2022-11-24T17:46:41.756Z,30.00
2022-11-24T17:51:58.717Z,30.00
2022-11-24T17:54:45.989Z,26.00
2022-11-24T17:57:23.552Z,32.00
2022-11-24T17:59:58.163Z,32.00
2022-11-24T18:02:31.424Z,34.00
2022-11-24T18:05:01.595Z,32.00
2022-11-24T18:07:42.278Z,26.50
2022-11-24T18:10:22.979Z,31.00
2022-11-24T18:15:18.582Z,32.00
2022-11-24T18:17:46.506Z,31.00
2022-11-24T18:23:04.693Z,31.00
2022-11-24T18:25:30.169Z,26.50
2022-11-24T18:27:58.096Z,29.00
2022-11-24T18:30:25.990Z,28.50
2022-11-24T18:32:53.870Z,31.00
2022-11-24T18:35:21.711Z,35.00
2022-11-24T18:37:49.567Z,38.00
2022-11-24T18:42:45.505Z,35.00
2022-11-24T18:45:13.344Z,37.00
2022-11-24T18:47:41.401Z,36.00
2022-11-24T18:50:09.823Z,32.00
2022-11-24T18:52:37.680Z,35.00
2022-11-24T18:55:05.859Z,30.00
2022-11-24T19:00:01.743Z,28.00
2022-11-24T19:02:29.713Z,26.00
2022-11-24T19:07:25.644Z,30.00
2022-11-24T19:14:49.099Z,27.00
2022-11-24T19:17:17.022Z,27.00
2022-11-24T19:19:44.838Z,28.00
2022-11-24T19:22:13.535Z,26.50
2022-11-24T19:24:41.904Z,28.00
2022-11-24T19:29:42.939Z,26.00
2022-11-24T19:32:11.257Z,23.00
2022-11-24T19:34:39.549Z,25.00
2022-11-24T19:37:08.269Z,24.00
2022-11-24T19:39:36.353Z,22.00
2022-11-24T19:42:04.888Z,17.00
2022-11-24T19:44:33.039Z,23.00
2022-11-24T19:49:29.439Z,18.00
2022-11-24T19:51:57.662Z,22.00
2022-11-24T19:54:25.593Z,21.50
2022-11-24T19:59:24.153Z,22.00
2022-11-24T20:01:52.206Z,21.00
2022-11-24T20:06:49.368Z,14.50
2022-11-24T20:09:18.221Z,19.00
2022-11-24T20:11:46.710Z,21.00
2022-11-24T20:14:16.548Z,19.00
2022-11-24T20:16:46.665Z,19.00
2022-11-24T20:19:17.429Z,19.00
2022-11-24T20:21:50.251Z,17.00
2022-11-24T20:26:56.372Z,19.00
2022-11-24T20:29:24.262Z,17.00
2022-11-24T20:31:55.276Z,19.00
2022-11-24T20:34:24.265Z,21.00
2022-11-24T20:36:53.155Z,18.50
2022-11-24T20:39:25.602Z,19.00
2022-11-24T20:41:55.502Z,18.00
2022-11-24T20:44:26.644Z,18.50
2022-11-24T20:46:57.021Z,22.00
2022-11-24T20:49:25.905Z,18.00
2022-11-24T20:51:57.599Z,25.00
2022-11-24T20:56:53.674Z,22.50
2022-11-24T21:01:52.425Z,22.00
2022-11-24T21:06:50.726Z,20.00
2022-11-24T21:09:19.199Z,22.00
2022-11-24T21:11:47.778Z,21.00
2022-11-24T21:14:15.840Z,22.00
2022-11-24T21:16:44.109Z,22.00
2022-11-24T21:19:14.291Z,23.00
2022-11-24T21:21:43.175Z,23.00
2022-11-24T21:26:48.036Z,25.00
2022-11-24T21:29:22.249Z,24.00
2022-11-24T21:31:50.444Z,25.00
2022-11-24T21:39:16.558Z,35.00
2022-11-24T21:41:44.430Z,26.00
2022-11-24T21:44:13.613Z,31.00
2022-11-24T21:46:46.059Z,29.00
2022-11-24T21:51:44.131Z,29.00
2022-11-24T21:54:12.074Z,28.50
2022-11-24T21:56:39.970Z,26.00
2022-11-24T21:59:07.796Z,27.00
2022-11-24T22:01:35.743Z,29.00
2022-11-24T22:04:03.721Z,32.00
2022-11-24T22:06:33.339Z,33.00
2022-11-24T22:09:01.418Z,34.50
2022-11-24T22:11:29.272Z,34.00
2022-11-24T22:16:25.819Z,31.00
2022-11-24T22:18:54.101Z,36.00
2022-11-24T22:21:25.734Z,34.00
2022-11-24T22:26:23.726Z,31.00
2022-11-24T22:28:53.382Z,28.00
2022-11-24T22:31:23.660Z,35.00
2022-11-24T22:33:53.079Z,34.50
2022-11-24T22:36:23.182Z,34.00
2022-11-24T22:38:56.471Z,35.00
2022-11-24T22:41:25.051Z,43.00
2022-11-24T22:43:54.024Z,40.00
2022-11-24T22:46:27.292Z,40.00
2022-11-24T22:48:58.574Z,33.50
2022-11-24T22:54:01.532Z,29.00
2022-11-24T22:56:32.451Z,34.00
2022-11-24T22:59:02.000Z,32.00
2022-11-24T23:03:58.664Z,30.00
2022-11-24T23:08:57.178Z,31.00
2022-11-24T23:11:33.854Z,35.00
2022-11-24T23:14:12.129Z,33.00
2022-11-24T23:16:40.442Z,32.50
2022-11-24T23:21:41.277Z,35.00
2022-11-24T23:24:10.799Z,34.00
2022-11-24T23:29:08.227Z,32.00
2022-11-24T23:34:04.583Z,36.00
2022-11-24T23:39:11.086Z,33.00
2022-11-24T23:41:39.284Z,31.00
2022-11-24T23:44:07.801Z,34.00
2022-11-24T23:51:33.085Z,28.00
2022-11-24T23:54:01.384Z,30.00
2022-11-24T23:59:02.677Z,28.00
